Time;durP1;ratioP1;P1;durP2;ratioP2;P2;SDS_P1;SDS_P2;PMS_P1;PMS_P2;Temp;Humidity;BMP_temperature;BMP_pressure;BME280_temperature;BME280_humidity;BME280_pressure;Samples;Min_cycle;Max_cycle;Signal;HPM_P1;HPM_P2
2021/09/15 00:03:08;409007.00;1.36;705.29;59184.00;0.20;103.07;;;;;24.50;1.00;;;;;;2567779;55;935;-91
2021/09/15 00:08:22;;;;;;;;;;;;;;;;;;;;;
2021/09/15 00:10:52;367036.00;1.22;633.14;0.00;0.00;0.62;;;;;24.10;1.00;;;;;;2562738;56;1082;-89
2021/09/15 00:13:28;461577.00;1.54;795.70;49354.00;0.16;86.07;;;;;24.10;1.20;;;;;;2560670;56;1965;-89
2021/09/15 00:15:58;74224.00;0.25;129.06;0.00;0.00;0.62;;;;;24.10;1.60;;;;;;2557559;56;1396;-90
2021/09/15 00:18:35;153895.00;0.51;266.52;0.00;0.00;0.62;;;;;23.90;2.40;;;;;;2552519;56;945;-89
2021/09/15 00:21:16;113883.00;0.38;197.53;0.00;0.00;0.62;;;;;23.70;2.30;;;;;;2549702;56;1482;-89
2021/09/15 00:23:46;332935.00;1.11;574.53;70409.00;0.23;122.47;;;;;23.80;2.60;;;;;;2552657;56;1013;-89
2021/09/15 00:26:41;537529.00;1.79;926.46;97397.00;0.32;169.08;;;;;23.70;2.30;;;;;;2552488;56;1381;-88
2021/09/15 00:29:40;462377.00;1.54;797.07;44374.00;0.15;77.46;;;;;23.70;2.90;;;;;;2560203;56;1512;-88
2021/09/15 00:32:26;395894.00;1.32;682.75;0.00;0.00;0.62;;;;;23.90;3.10;;;;;;2552504;56;1264;-89
2021/09/15 00:38:57;;;;;;;;;;;;;;;;;;;;;
2021/09/15 00:41:31;237381.00;0.79;410.25;0.00;0.00;0.62;;;;;23.90;3.70;;;;;;2522570;57;954;-88
2021/09/15 01:08:01;126172.00;0.42;218.73;0.00;0.00;0.62;;;;;24.30;1.50;;;;;;2581661;55;821;-88
2021/09/15 01:22:35;0.00;0.00;0.62;0.00;0.00;0.62;;;;;24.40;1.70;;;;;;2581556;55;869;-88
2021/09/15 03:03:01;;;;;;;;;;;;;;;;;;;;;
2021/09/15 03:27:40;;;;;;;;;;;;;;;;;;;;;
2021/09/15 03:35:42;487357.00;1.62;840.06;76271.00;0.25;132.60;;;;;23.80;2.80;;;;;;2511397;57;1422;-88
2021/09/15 03:38:51;;;;;;;;;;;;;;;;;;;;;
2021/09/15 04:42:34;327310.00;1.09;564.86;62026.00;0.21;107.98;;;;;23.10;7.20;;;;;;2477897;57;1129;-89
2021/09/15 04:46:03;;;;;;;;;;;;;;;;;;;;;
2021/09/15 04:48:42;;;;;;;;;;;;;;;;;;;;;
2021/09/15 05:06:00;394060.00;1.31;679.59;75009.00;0.25;130.42;;;;;23.40;7.20;;;;;;2581707;55;1319;-90
2021/09/15 05:16:25;177540.00;0.59;307.25;0.00;0.00;0.62;;;;;23.00;8.40;;;;;;2526965;56;1898;-90
2021/09/15 05:19:00;192567.00;0.64;333.13;0.00;0.00;0.62;;;;;23.10;8.40;;;;;;2512495;57;1116;-91
2021/09/15 05:21:28;229140.00;0.76;396.07;0.00;0.00;0.62;;;;;23.20;7.50;;;;;;2512548;57;1217;-90
2021/09/15 05:23:55;187403.00;0.62;324.24;0.00;0.00;0.62;;;;;23.20;8.30;;;;;;2512216;57;1048;-91
2021/09/15 05:49:31;11551.00;0.04;20.64;0.00;0.00;0.62;;;;;23.50;8.70;;;;;;2506748;57;1003;-88
2021/09/15 05:51:58;281145.00;0.94;485.51;0.00;0.00;0.62;;;;;23.60;8.80;;;;;;2517498;57;1005;-88
2021/09/15 05:54:25;314364.00;1.05;542.61;0.00;0.00;0.62;;;;;23.70;8.60;;;;;;2517425;57;1898;-89
2021/09/15 05:56:52;155578.00;0.52;269.42;0.00;0.00;0.62;;;;;23.80;8.30;;;;;;2515391;57;1109;-88
2021/09/15 05:59:19;0.00;0.00;0.62;0.00;0.00;0.62;;;;;23.90;7.60;;;;;;2517577;57;1031;-89
2021/09/15 06:01:46;276015.00;0.92;476.69;19903.00;0.07;35.10;;;;;23.80;7.70;;;;;;2512504;57;1006;-89
2021/09/15 06:04:13;178167.00;0.59;308.33;45859.00;0.15;80.02;;;;;24.00;7.40;;;;;;2509796;57;1363;-88
2021/09/15 06:06:41;40817.00;0.14;71.30;0.00;0.00;0.62;;;;;24.00;8.10;;;;;;2510393;57;1742;-89
2021/09/15 06:09:08;116659.00;0.39;202.32;0.00;0.00;0.62;;;;;24.10;7.70;;;;;;2517675;56;980;-88
2021/09/15 06:11:35;223233.00;0.74;385.91;0.00;0.00;0.62;;;;;24.20;5.80;;;;;;2519090;56;973;-90
2021/09/15 06:14:03;193312.00;0.64;334.41;0.00;0.00;0.62;;;;;24.10;7.10;;;;;;2527343;56;1937;-89
2021/09/15 06:16:30;122737.00;0.41;212.80;38553.00;0.13;67.38;;;;;24.10;7.20;;;;;;2527319;56;1041;-89
2021/09/15 06:18:57;218355.00;0.73;377.51;0.00;0.00;0.62;;;;;24.10;7.00;;;;;;2521693;56;955;-89
2021/09/15 06:21:24;192575.00;0.64;333.14;0.00;0.00;0.62;;;;;24.10;7.30;;;;;;2545053;56;1001;-89
2021/09/15 06:23:52;327801.00;1.09;565.71;36715.00;0.12;64.20;;;;;23.90;7.70;;;;;;2559355;56;1045;-90
2021/09/15 06:26:23;286944.00;0.96;495.48;55205.00;0.18;96.19;;;;;23.90;8.40;;;;;;2563403;55;1475;-89
2021/09/15 06:28:50;6884.00;0.02;12.55;0.00;0.00;0.62;;;;;24.00;7.90;;;;;;2574354;55;995;-89
2021/09/15 06:31:20;241939.00;0.81;418.09;0.00;0.00;0.62;;;;;24.20;7.20;;;;;;2572978;55;926;-90
2021/09/15 06:33:47;382992.00;1.28;660.57;122515.00;0.41;212.42;;;;;23.80;8.80;;;;;;2573094;55;1894;-88
2021/09/15 06:36:15;105273.00;0.35;182.67;0.00;0.00;0.62;;;;;23.80;7.80;;;;;;2573150;55;1433;-93
2021/09/15 06:38:44;73944.00;0.25;128.58;0.00;0.00;0.62;;;;;23.60;8.80;;;;;;2557653;56;919;-89
2021/09/15 06:41:14;396638.00;1.32;684.03;38834.00;0.13;67.87;;;;;23.50;8.70;;;;;;2545038;56;976;-89
2021/09/15 06:43:44;7805.00;0.03;14.15;0.00;0.00;0.62;;;;;23.70;8.30;;;;;;2549156;56;986;-89
2021/09/15 06:46:11;78118.00;0.26;135.79;0.00;0.00;0.62;;;;;23.70;7.00;;;;;;2552461;56;1358;-89
2021/09/15 06:48:38;449876.00;1.50;775.57;2702.00;0.01;5.30;;;;;24.00;8.00;;;;;;2543194;56;985;-89
2021/09/15 06:51:05;313292.00;1.04;540.77;20525.00;0.07;36.18;;;;;24.10;6.30;;;;;;2542231;56;969;-89
2021/09/15 06:53:32;79293.00;0.26;137.82;0.00;0.00;0.62;;;;;24.20;6.40;;;;;;2534024;56;955;-90
2021/09/15 06:55:59;129730.00;0.43;224.86;0.00;0.00;0.62;;;;;23.80;8.70;;;;;;2532878;56;1916;-89
2021/09/15 06:58:27;193052.00;0.64;333.96;0.00;0.00;0.62;;;;;23.70;9.00;;;;;;2537442;56;1024;-90
2021/09/15 07:03:24;329509.00;1.10;568.64;74972.00;0.25;130.35;;;;;23.90;9.00;;;;;;2580344;55;983;-88
2021/09/15 07:05:51;317703.00;1.06;548.35;27433.00;0.09;48.14;;;;;24.00;8.50;;;;;;2577707;55;1401;-89
2021/09/15 07:08:18;103295.00;0.34;179.26;0.00;0.00;0.62;;;;;24.00;9.00;;;;;;2583280;55;979;-89
2021/09/15 07:10:45;0.00;0.00;0.62;0.00;0.00;0.62;;;;;23.80;8.70;;;;;;2573022;55;980;-90
2021/09/15 07:13:12;56183.00;0.19;97.88;0.00;0.00;0.62;;;;;23.70;9.40;;;;;;2570925;56;1065;-88
2021/09/15 07:15:40;164111.00;0.55;284.12;0.00;0.00;0.62;;;;;23.80;9.00;;;;;;2573031;55;1969;-88
2021/09/15 07:23:11;53667.00;0.18;93.53;0.00;0.00;0.62;;;;;24.30;9.20;;;;;;2587714;55;413;-89
2021/09/15 07:25:38;125840.00;0.42;218.16;0.00;0.00;0.62;;;;;24.30;8.90;;;;;;2586540;55;1369;-91
2021/09/15 07:28:05;175980.00;0.59;304.57;0.00;0.00;0.62;;;;;24.10;8.90;;;;;;2584693;55;374;-91
2021/09/15 07:30:32;138741.00;0.46;240.40;0.00;0.00;0.62;;;;;24.10;9.10;;;;;;2571320;55;879;-91
2021/09/15 07:33:00;212962.00;0.71;368.23;0.00;0.00;0.62;;;;;24.10;9.40;;;;;;2568644;56;745;-91
2021/09/15 07:35:27;119028.00;0.40;206.41;52623.00;0.18;91.72;;;;;24.00;11.00;;;;;;2567896;56;1964;-90
2021/09/15 07:37:54;113165.00;0.38;196.29;0.00;0.00;0.62;;;;;23.90;10.50;;;;;;2567904;56;927;-91
2021/09/15 07:40:21;147570.00;0.49;255.62;0.00;0.00;0.62;;;;;24.00;10.10;;;;;;2568004;56;1027;-90
2021/09/15 07:45:16;51017.00;0.17;88.94;0.00;0.00;0.62;;;;;24.10;9.20;;;;;;2576514;55;1327;-91
2021/09/15 07:47:44;167929.00;0.56;290.70;0.00;0.00;0.62;;;;;24.30;9.40;;;;;;2567822;56;1018;-88
2021/09/15 08:23:54;188028.00;0.63;325.31;75913.00;0.25;131.98;;;;;24.70;8.50;;;;;;2582438;55;405;-88
2021/09/15 09:24:17;10205.00;0.03;18.30;0.00;0.00;0.62;;;;;22.50;11.20;;;;;;2581872;55;1291;-91
2021/09/15 09:26:54;92478.00;0.31;160.59;0.00;0.00;0.62;;;;;22.50;10.90;;;;;;2589145;55;982;-88
2021/09/15 09:46:47;281034.00;0.94;485.32;41708.00;0.14;72.84;;;;;21.90;14.30;;;;;;2577245;55;943;-91
2021/09/15 09:49:14;49452.00;0.16;86.24;0.00;0.00;0.62;;;;;22.10;13.80;;;;;;2568891;55;970;-90
2021/09/15 09:51:41;30870.00;0.10;54.09;0.00;0.00;0.62;;;;;22.30;13.70;;;;;;2573496;55;1727;-89
2021/09/15 12:13:54;238561.00;0.80;412.28;73775.00;0.25;128.28;;;;;25.40;1.00;;;;;;2539981;40;1909;-89
2021/09/15 12:16:39;289174.00;0.96;499.31;0.00;0.00;0.62;;;;;25.90;1.60;;;;;;2536387;40;2317;31
2021/09/15 12:24:15;21879.00;0.07;38.52;0.00;0.00;0.62;;;;;26.90;1.00;;;;;;2582220;55;1244;-89
2021/09/15 12:34:36;19309.00;0.06;34.07;0.00;0.00;0.62;;;;;27.10;1.00;;;;;;2576430;56;1848;-89
2021/09/15 12:47:17;315906.00;1.05;545.26;36619.00;0.12;64.04;;;;;26.80;1.00;;;;;;2577280;56;402;-90
2021/09/15 17:21:24;0.00;0.00;0.62;0.00;0.00;0.62;;;;;24.80;1.70;;;;;;2582459;55;417;-89
2021/09/15 17:23:51;351936.00;1.17;607.19;8921.00;0.03;16.08;;;;;24.80;1.10;;;;;;2572921;55;905;-90
2021/09/15 17:26:19;265701.00;0.89;458.95;0.00;0.00;0.62;;;;;24.60;1.80;;;;;;2572968;55;1409;-89
2021/09/15 17:28:47;436548.00;1.46;752.65;62427.00;0.21;108.67;;;;;24.60;1.80;;;;;;2557562;56;966;-88
2021/09/15 17:31:14;12126.00;0.04;21.63;0.00;0.00;0.62;;;;;24.70;1.10;;;;;;2557393;56;966;-89
2021/09/15 17:33:41;12268.00;0.04;21.88;0.00;0.00;0.62;;;;;24.50;1.80;;;;;;2562752;56;990;-89
2021/09/15 17:36:08;141962.00;0.47;245.95;0.00;0.00;0.62;;;;;24.50;1.50;;;;;;2557628;56;1905;-88
2021/09/15 17:38:39;211314.00;0.70;365.40;0.00;0.00;0.62;;;;;24.30;1.70;;;;;;2553464;56;981;-87
2021/09/15 17:41:10;79009.00;0.26;137.33;0.00;0.00;0.62;;;;;24.30;1.60;;;;;;2552329;56;988;-88
2021/09/15 17:43:37;126377.00;0.42;219.08;0.00;0.00;0.62;;;;;24.20;1.90;;;;;;2542156;56;1008;-89
2021/09/15 17:46:04;233716.00;0.78;403.94;0.00;0.00;0.62;;;;;24.20;2.20;;;;;;2543329;56;1353;-89
2021/09/15 17:48:31;59215.00;0.20;103.12;0.00;0.00;0.62;;;;;24.20;2.60;;;;;;2547453;56;984;-89
2021/09/15 17:50:58;232076.00;0.77;401.12;31520.00;0.11;55.21;;;;;24.10;2.00;;;;;;2547360;56;987;-90
2021/09/15 17:53:25;235144.00;0.78;406.40;55910.00;0.19;97.41;;;;;24.10;2.30;;;;;;2549037;56;1018;-88
2021/09/15 17:55:54;178923.00;0.60;309.63;0.00;0.00;0.62;;;;;24.10;2.10;;;;;;2557408;56;1899;-89
2021/09/15 17:58:21;215707.00;0.72;372.96;6884.00;0.02;12.55;;;;;24.00;1.60;;;;;;2558066;56;954;-89
2021/09/15 18:00:48;143643.00;0.48;248.85;0.00;0.00;0.62;;;;;23.90;2.90;;;;;;2563400;56;1002;-88
2021/09/15 18:03:15;0.00;0.00;0.62;0.00;0.00;0.62;;;;;24.00;2.10;;;;;;2563329;56;972;-89
2021/09/15 18:05:42;0.00;0.00;0.62;0.00;0.00;0.62;;;;;24.00;2.50;;;;;;2567761;56;1387;-88
2021/09/15 18:08:09;0.00;0.00;0.62;0.00;0.00;0.62;;;;;24.00;3.20;;;;;;2563542;56;1023;-89
2021/09/15 18:10:36;194519.00;0.65;336.49;0.00;0.00;0.62;;;;;24.00;3.00;;;;;;2567719;56;987;-89
2021/09/15 18:13:04;1056340.00;3.52;1832.52;354230.00;1.18;611.13;;;;;24.20;2.60;;;;;;2554969;56;1003;-89
2021/09/15 18:15:31;291164.00;0.97;502.73;86451.00;0.29;150.18;;;;;24.10;2.50;;;;;;2569062;55;1950;-89
2021/09/15 18:17:58;119568.00;0.40;207.34;0.00;0.00;0.62;;;;;24.20;2.20;;;;;;2573840;55;973;-89
2021/09/15 18:20:25;37341.00;0.12;65.29;0.00;0.00;0.62;;;;;24.20;2.10;;;;;;2569166;55;1130;-89
2021/09/15 18:22:52;106916.00;0.36;185.51;0.00;0.00;0.62;;;;;24.20;3.00;;;;;;2572415;55;921;-89
2021/09/15 18:25:20;67479.00;0.22;117.40;0.00;0.00;0.62;;;;;24.20;2.00;;;;;;2572258;55;1403;-89
2021/09/15 18:27:47;82417.00;0.27;143.21;0.00;0.00;0.62;;;;;24.10;3.10;;;;;;2572438;55;991;-90
2021/09/15 18:30:15;49007.00;0.16;85.47;0.00;0.00;0.62;;;;;24.10;3.10;;;;;;2572773;55;943;-89
2021/09/15 18:32:42;24622.00;0.08;43.27;0.00;0.00;0.62;;;;;24.20;2.30;;;;;;2559564;55;904;-89
2021/09/15 18:35:16;342743.00;1.14;591.39;42573.00;0.14;74.34;;;;;24.00;3.10;;;;;;2564294;55;1953;-89
2021/09/15 18:37:43;81447.00;0.27;141.54;0.00;0.00;0.62;;;;;23.40;4.70;;;;;;2557560;56;953;-90
2021/09/15 18:42:41;142838.00;0.48;247.46;76662.00;0.26;133.27;;;;;22.90;7.20;;;;;;2587730;55;428;-89
2021/09/15 18:45:09;401892.00;1.34;693.06;86472.00;0.29;150.22;;;;;22.90;6.70;;;;;;2580386;55;1331;-90
2021/09/15 18:50:10;174158.00;0.58;301.43;0.00;0.00;0.62;;;;;23.30;5.70;;;;;;2581745;55;597;-88
2021/09/15 18:52:38;116373.00;0.39;201.83;0.00;0.00;0.62;;;;;23.30;5.50;;;;;;2584040;55;1057;-90
2021/09/15 18:55:05;131439.00;0.44;227.81;0.00;0.00;0.62;;;;;23.60;4.70;;;;;;2572705;55;1965;-89
2021/09/15 18:57:33;0.00;0.00;0.62;0.00;0.00;0.62;;;;;23.80;3.50;;;;;;2564515;55;931;-89
2021/09/15 19:02:34;167631.00;0.56;290.19;58862.00;0.20;102.51;;;;;23.90;3.50;;;;;;2581514;55;608;-90
2021/09/15 19:05:01;250680.00;0.84;433.12;26616.00;0.09;46.73;;;;;23.90;3.40;;;;;;2581468;55;1294;-90
2021/09/15 19:07:41;261893.00;0.87;452.40;0.00;0.00;0.62;;;;;23.80;3.50;;;;;;2578700;55;950;-90
2021/09/15 19:15:10;133300.00;0.44;231.02;11270.00;0.04;20.15;;;;;23.30;5.20;;;;;;2579703;55;1928;-91
2021/09/15 19:17:37;0.00;0.00;0.62;0.00;0.00;0.62;;;;;23.00;6.20;;;;;;2567538;56;924;-90
2021/09/15 19:20:06;113556.00;0.38;196.97;0.00;0.00;0.62;;;;;23.10;5.70;;;;;;2568130;56;1002;-90
2021/09/15 19:22:33;160167.00;0.53;277.33;0.00;0.00;0.62;;;;;23.30;5.10;;;;;;2552531;56;946;-92
2021/09/15 19:25:02;234375.00;0.78;405.08;0.00;0.00;0.62;;;;;23.50;4.90;;;;;;2548121;56;1368;-90
2021/09/15 19:27:29;146159.00;0.49;253.19;0.00;0.00;0.62;;;;;23.70;3.50;;;;;;2548401;56;951;-91
2021/09/15 19:29:57;177052.00;0.59;306.41;0.00;0.00;0.62;;;;;23.70;3.40;;;;;;2547520;56;990;-90
2021/09/15 19:32:24;176216.00;0.59;304.97;0.00;0.00;0.62;;;;;23.70;3.10;;;;;;2547157;56;1005;-91
2021/09/15 19:34:51;207338.00;0.69;358.55;38949.00;0.13;68.07;;;;;23.50;3.20;;;;;;2548769;56;1305;-90
2021/09/15 19:37:18;0.00;0.00;0.62;0.00;0.00;0.62;;;;;23.50;3.10;;;;;;2547433;56;1953;-90
2021/09/15 19:39:46;287973.00;0.96;497.24;3710.00;0.01;7.05;;;;;23.40;3.10;;;;;;2547672;56;988;-91
2021/09/15 19:44:42;84045.00;0.28;146.02;16164.00;0.05;28.63;;;;;23.10;3.40;;;;;;2580738;55;1256;-89
2021/09/15 19:47:09;234393.00;0.78;405.11;0.00;0.00;0.62;;;;;23.00;4.20;;;;;;2578595;55;926;-92
2021/09/15 19:49:36;85242.00;0.28;148.09;0.00;0.00;0.62;;;;;23.00;4.00;;;;;;2578834;55;975;-90
2021/09/15 19:52:04;189875.00;0.63;328.49;0.00;0.00;0.62;;;;;22.90;4.50;;;;;;2565451;55;990;-88
2021/09/15 19:54:31;96862.00;0.32;168.16;16038.00;0.05;28.41;;;;;23.10;3.80;;;;;;2562374;56;1290;-89
2021/09/15 19:56:58;57416.00;0.19;100.01;0.00;0.00;0.62;;;;;23.40;3.20;;;;;;2552516;56;1965;-90
2021/09/15 19:59:28;149490.00;0.50;258.93;0.00;0.00;0.62;;;;;23.30;3.20;;;;;;2552524;56;1006;-89
2021/09/15 20:01:57;26387.00;0.09;46.33;0.00;0.00;0.62;;;;;23.10;3.00;;;;;;2547254;56;945;-90
2021/09/15 20:04:23;0.00;0.00;0.62;0.00;0.00;0.62;;;;;23.10;3.50;;;;;;2543323;56;1339;-87
2021/09/15 20:06:51;191557.00;0.64;331.39;0.00;0.00;0.62;;;;;23.20;2.50;;;;;;2547644;56;978;-89
2021/09/15 20:09:18;9219.00;0.03;16.60;0.00;0.00;0.62;;;;;23.20;2.70;;;;;;2537349;56;952;-88
2021/09/15 20:11:45;134087.00;0.45;232.38;0.00;0.00;0.62;;;;;23.20;2.80;;;;;;2538897;56;972;-90
2021/09/15 20:14:12;253610.00;0.85;438.16;14984.00;0.05;26.58;;;;;23.10;3.40;;;;;;2547573;56;1228;-88
2021/09/15 20:16:39;165541.00;0.55;286.59;0.00;0.00;0.62;;;;;23.30;2.80;;;;;;2542444;56;1957;-88
2021/09/15 20:19:08;255432.00;0.85;441.29;0.00;0.00;0.62;;;;;23.40;2.50;;;;;;2539844;56;994;-88
2021/09/15 20:21:35;70612.00;0.24;122.82;0.00;0.00;0.62;;;;;23.40;1.90;;;;;;2553413;56;1004;-90
2021/09/15 20:24:02;0.00;0.00;0.62;0.00;0.00;0.62;;;;;23.30;2.30;;;;;;2552437;56;1008;-89
2021/09/15 20:26:29;197727.00;0.66;342.01;0.00;0.00;0.62;;;;;23.20;2.70;;;;;;2552088;56;1309;-89
2021/09/15 20:28:56;0.00;0.00;0.62;0.00;0.00;0.62;;;;;23.20;2.70;;;;;;2552531;56;982;-89
2021/09/15 20:31:23;178233.00;0.59;308.45;0.00;0.00;0.62;;;;;23.20;2.10;;;;;;2542892;56;988;-89
2021/09/15 20:33:50;165700.00;0.55;286.86;0.00;0.00;0.62;;;;;23.10;2.30;;;;;;2547492;56;1031;-89
2021/09/15 20:36:19;0.00;0.00;0.62;0.00;0.00;0.62;;;;;23.00;2.70;;;;;;2547461;56;1907;-89
2021/09/15 20:38:46;72619.00;0.24;126.29;0.00;0.00;0.62;;;;;22.90;2.60;;;;;;2547614;56;995;-89
2021/09/15 20:41:13;117023.00;0.39;202.95;0.00;0.00;0.62;;;;;22.90;2.70;;;;;;2543492;56;974;-90
2021/09/15 20:43:40;151746.00;0.51;262.82;0.00;0.00;0.62;;;;;22.90;3.10;;;;;;2555447;56;1003;-89
2021/09/15 20:48:39;0.00;0.00;0.62;0.00;0.00;0.62;;;;;22.70;3.40;;;;;;2581861;55;539;-88
2021/09/15 20:51:06;526929.00;1.76;908.20;58767.00;0.20;102.35;;;;;22.80;3.10;;;;;;2574844;55;939;-89
2021/09/15 20:53:34;183352.00;0.61;317.26;0.00;0.00;0.62;;;;;22.70;3.50;;;;;;2573025;55;982;-88
2021/09/15 20:56:02;94642.00;0.32;164.32;0.00;0.00;0.62;;;;;22.60;3.50;;;;;;2573146;55;1956;-90
2021/09/15 20:58:29;260725.00;0.87;450.40;25859.00;0.09;45.41;;;;;22.90;3.40;;;;;;2573159;55;995;-89
2021/09/15 21:00:57;15950.00;0.05;28.26;0.00;0.00;0.62;;;;;22.90;2.40;;;;;;2557624;56;943;-90
2021/09/15 21:03:24;112987.00;0.38;195.98;43796.00;0.15;76.46;;;;;22.90;2.80;;;;;;2557760;56;996;-89
2021/09/15 21:05:50;0.00;0.00;0.62;0.00;0.00;0.62;;;;;23.00;2.80;;;;;;2549127;56;1354;-90
2021/09/15 21:08:17;40265.00;0.13;70.35;0.00;0.00;0.62;;;;;23.10;2.60;;;;;;2542386;56;995;-90
2021/09/15 21:10:46;284384.00;0.95;491.07;24591.00;0.08;43.22;;;;;23.20;2.40;;;;;;2544240;56;999;-91
2021/09/15 21:13:13;0.00;0.00;0.62;0.00;0.00;0.62;;;;;23.30;1.00;;;;;;2557717;56;999;-91
2021/09/15 21:15:40;142139.00;0.47;246.26;0.00;0.00;0.62;;;;;23.20;1.00;;;;;;2557688;56;1417;-91
2021/09/15 21:18:07;0.00;0.00;0.62;0.00;0.00;0.62;;;;;23.30;1.00;;;;;;2559317;55;1000;-88
2021/09/15 21:20:34;106285.00;0.35;184.42;0.00;0.00;0.62;;;;;23.40;1.00;;;;;;2568667;55;970;-89
2021/09/15 21:23:03;0.00;0.00;0.62;0.00;0.00;0.62;;;;;23.20;1.00;;;;;;2573084;55;1043;-89
2021/09/15 21:25:30;59648.00;0.20;103.87;0.00;0.00;0.62;;;;;23.10;1.00;;;;;;2564503;55;1291;-90
2021/09/15 21:27:59;145647.00;0.49;252.31;0.00;0.00;0.62;;;;;22.90;2.30;;;;;;2578325;55;953;-90
2021/09/15 21:30:27;138368.00;0.46;239.76;0.00;0.00;0.62;;;;;22.80;2.10;;;;;;2578206;55;985;-90
2021/09/15 21:32:54;181423.00;0.60;313.94;0.00;0.00;0.62;;;;;22.70;2.40;;;;;;2578197;55;978;-89
2021/09/15 21:35:20;58158.00;0.19;101.29;0.00;0.00;0.62;;;;;22.70;2.70;;;;;;2578235;55;1414;-90
2021/09/15 21:37:48;57275.00;0.19;99.77;0.00;0.00;0.62;;;;;22.60;2.30;;;;;;2578248;55;1902;-90
2021/09/15 21:40:17;58867.00;0.20;102.52;0.00;0.00;0.62;;;;;22.30;3.40;;;;;;2578177;55;1005;-90
2021/09/15 21:42:44;17854.00;0.06;31.55;0.00;0.00;0.62;;;;;22.10;3.90;;;;;;2567747;56;950;-91
2021/09/15 21:45:13;0.00;0.00;0.62;0.00;0.00;0.62;;;;;22.00;4.60;;;;;;2562634;56;1376;-91
2021/09/15 21:47:41;211466.00;0.70;365.66;33178.00;0.11;58.08;;;;;22.30;4.10;;;;;;2552346;56;920;-90
2021/09/15 21:50:09;27204.00;0.09;47.74;0.00;0.00;0.62;;;;;22.40;3.40;;;;;;2552573;56;992;-90
2021/09/15 21:52:37;12226.00;0.04;21.81;0.00;0.00;0.62;;;;;22.40;3.40;;;;;;2548321;56;982;-91
2021/09/15 21:55:05;108095.00;0.36;187.54;0.00;0.00;0.62;;;;;22.40;2.10;;;;;;2542396;56;1419;-91
2021/09/15 21:57:32;19119.00;0.06;33.74;0.00;0.00;0.62;;;;;22.50;2.70;;;;;;2542448;56;1937;-90
2021/09/15 21:59:59;155218.00;0.52;268.80;0.00;0.00;0.62;;;;;22.50;2.00;;;;;;2543862;56;1008;-90
2021/09/15 22:02:28;31919.00;0.11;55.90;0.00;0.00;0.62;;;;;22.50;2.20;;;;;;2557035;56;1044;-91
2021/09/15 22:04:55;420422.00;1.40;724.92;95317.00;0.32;165.49;;;;;22.60;1.70;;;;;;2558312;56;1362;-90
2021/09/15 22:07:22;0.00;0.00;0.62;0.00;0.00;0.62;;;;;22.70;2.30;;;;;;2562788;56;1093;-90
2021/09/15 22:09:50;5136.00;0.02;9.52;0.00;0.00;0.62;;;;;22.80;1.90;;;;;;2562874;56;911;-90
2021/09/15 22:12:16;4305.00;0.01;8.08;0.00;0.00;0.62;;;;;22.80;1.90;;;;;;2555405;55;995;-90
2021/09/15 22:14:45;0.00;0.00;0.62;0.00;0.00;0.62;;;;;22.90;1.70;;;;;;2573051;55;1276;-89
2021/09/15 22:17:12;95050.00;0.32;165.03;18934.00;0.06;33.42;;;;;23.10;2.50;;;;;;2572990;55;1932;-89
2021/09/15 22:19:40;0.00;0.00;0.62;0.00;0.00;0.62;;;;;23.20;2.10;;;;;;2568365;55;963;-89
2021/09/15 22:22:07;112751.00;0.38;195.58;0.00;0.00;0.62;;;;;23.20;2.40;;;;;;2568694;55;951;-88
2021/09/15 22:24:34;87426.00;0.29;151.86;0.00;0.00;0.62;;;;;23.20;2.20;;;;;;2560130;55;1388;-89
2021/09/15 22:27:01;146762.00;0.49;254.23;0.00;0.00;0.62;;;;;23.30;2.30;;;;;;2573059;55;966;-87
2021/09/15 22:29:28;220193.00;0.73;380.68;52490.00;0.17;91.49;;;;;23.30;1.00;;;;;;2560000;55;956;-89
2021/09/15 22:31:56;38813.00;0.13;67.83;0.00;0.00;0.62;;;;;23.20;1.00;;;;;;2563931;55;982;-87
2021/09/15 22:34:23;44038.00;0.15;76.87;0.00;0.00;0.62;;;;;23.20;1.60;;;;;;2572852;55;1320;-87
2021/09/15 22:36:51;232930.00;0.78;402.59;0.00;0.00;0.62;;;;;23.20;1.00;;;;;;2565468;55;1940;-88
2021/09/15 22:39:18;134334.00;0.45;232.80;7522.00;0.03;13.66;;;;;23.20;1.10;;;;;;2574665;55;966;-87
2021/09/15 22:41:45;0.00;0.00;0.62;0.00;0.00;0.62;;;;;23.20;1.20;;;;;;2583573;55;1027;-89
2021/09/15 22:44:12;137497.00;0.46;238.26;0.00;0.00;0.62;;;;;22.90;1.20;;;;;;2583880;55;1355;-90
2021/09/15 22:46:39;0.00;0.00;0.62;0.00;0.00;0.62;;;;;22.70;2.90;;;;;;2570444;55;929;-91
2021/09/15 22:49:06;68314.00;0.23;118.85;0.00;0.00;0.62;;;;;22.80;2.30;;;;;;2583883;55;955;-90
2021/09/15 22:51:33;59930.00;0.20;104.36;0.00;0.00;0.62;;;;;22.90;2.60;;;;;;2583855;55;1033;-89
2021/09/15 22:54:01;153317.00;0.51;265.52;0.00;0.00;0.62;;;;;23.00;1.80;;;;;;2583256;55;945;-91
2021/09/15 22:56:28;12219.00;0.04;21.79;0.00;0.00;0.62;;;;;23.00;2.10;;;;;;2574617;55;1904;-89
2021/09/15 22:58:55;351163.00;1.17;605.86;56623.00;0.19;98.64;;;;;23.10;2.50;;;;;;2574764;55;937;-90
2021/09/15 23:01:22;190351.00;0.63;329.31;0.00;0.00;0.62;;;;;23.10;2.30;;;;;;2583866;55;925;-90
2021/09/15 23:03:49;64164.00;0.21;111.67;0.00;0.00;0.62;;;;;22.90;1.40;;;;;;2574748;55;934;-90
2021/09/15 23:06:16;44976.00;0.15;78.50;0.00;0.00;0.62;;;;;22.90;2.40;;;;;;2567731;56;1396;-90
2021/09/15 23:08:43;0.00;0.00;0.62;0.00;0.00;0.62;;;;;22.80;2.20;;;;;;2567270;56;996;-90
2021/09/15 23:11:11;56783.00;0.19;98.92;0.00;0.00;0.62;;;;;23.00;2.50;;;;;;2567813;56;1010;-91
2021/09/15 23:13:38;0.00;0.00;0.62;0.00;0.00;0.62;;;;;23.10;2.30;;;;;;2563522;56;1088;-90
2021/09/15 23:16:05;117550.00;0.39;203.86;0.00;0.00;0.62;;;;;23.20;1.70;;;;;;2557588;56;1408;-87
2021/09/15 23:18:32;0.00;0.00;0.62;0.00;0.00;0.62;;;;;23.10;1.50;;;;;;2557561;56;2331;-88
2021/09/15 23:20:59;5154.00;0.02;9.55;0.00;0.00;0.62;;;;;23.10;1.30;;;;;;2557814;56;1026;-89
2021/09/15 23:23:27;46827.00;0.16;81.70;0.00;0.00;0.62;;;;;23.10;1.20;;;;;;2555070;55;944;-89
2021/09/15 23:25:54;512.00;0.00;1.51;0.00;0.00;0.62;;;;;22.70;1.10;;;;;;2572928;55;1398;-90
2021/09/15 23:28:22;158028.00;0.53;273.64;0.00;0.00;0.62;;;;;22.50;2.20;;;;;;2573290;55;988;-90
2021/09/15 23:30:49;62252.00;0.21;108.37;0.00;0.00;0.62;;;;;22.00;3.10;;;;;;2573188;55;954;-90
2021/09/15 23:33:16;0.00;0.00;0.62;0.00;0.00;0.62;;;;;21.90;4.00;;;;;;2565555;55;994;-90
2021/09/15 23:35:45;84285.00;0.28;146.44;0.00;0.00;0.62;;;;;21.60;4.50;;;;;;2583512;55;1230;-89
2021/09/15 23:38:12;155243.00;0.52;268.84;0.00;0.00;0.62;;;;;21.50;5.30;;;;;;2573058;55;1956;-90
2021/09/15 23:40:39;85095.00;0.28;147.84;14875.00;0.05;26.39;;;;;21.60;5.10;;;;;;2572977;55;992;-90
2021/09/15 23:43:06;430438.00;1.43;742.14;193517.00;0.65;334.76;;;;;22.00;4.60;;;;;;2564574;55;946;-89
2021/09/15 23:45:34;109187.00;0.36;189.43;0.00;0.00;0.62;;;;;21.80;4.60;;;;;;2573006;55;1443;-90
2021/09/15 23:48:01;139063.00;0.46;240.96;0.00;0.00;0.62;;;;;22.00;4.20;;;;;;2560712;56;1010;-91
2021/09/15 23:50:28;153024.00;0.51;265.02;46175.00;0.15;80.57;;;;;22.40;4.60;;;;;;2562966;56;1024;-89
2021/09/15 23:52:55;45670.00;0.15;79.70;0.00;0.00;0.62;;;;;22.80;3.20;;;;;;2562727;56;1027;-90
2021/09/15 23:55:23;0.00;0.00;0.62;0.00;0.00;0.62;;;;;22.90;2.70;;;;;;2550811;55;1305;-90
2021/09/15 23:57:50;178512.00;0.60;308.93;0.00;0.00;0.62;;;;;23.00;2.60;;;;;;2573172;55;1944;-89
